Time;durP1;ratioP1;P1;durP2;ratioP2;P2;SDS_P1;SDS_P2;PMS_P1;PMS_P2;Temp;Humidity;BMP_temperature;BMP_pressure;BME280_temperature;BME280_humidity;BME280_pressure;Samples;Min_cycle;Max_cycle;Signal;HPM_P1;HPM_P2
2022/09/28 00:01:31;;;;;;;3.73;1.70;;;11.10;99.90;;;;;;6030358;29;20498;-62
2022/09/28 00:04:35;;;;;;;3.87;1.70;;;11.20;99.90;;;;;;6031411;29;20471;-62
2022/09/28 00:07:39;;;;;;;6.40;1.80;;;11.20;99.90;;;;;;6031429;29;20491;-61
2022/09/28 00:10:42;;;;;;;1.93;1.40;;;11.20;99.90;;;;;;6029690;29;20483;-61
2022/09/28 00:13:48;;;;;;;1.87;1.40;;;11.30;99.90;;;;;;6025759;29;20560;-62
2022/09/28 00:16:51;;;;;;;3.00;1.30;;;11.20;99.90;;;;;;6031543;29;20540;-62
2022/09/28 00:19:56;;;;;;;2.30;2.10;;;11.30;99.90;;;;;;6041645;29;21226;-64
2022/09/28 00:22:59;;;;;;;2.70;2.20;;;11.30;99.90;;;;;;6053729;29;20490;-63
2022/09/28 00:26:03;;;;;;;3.23;2.00;;;11.20;99.90;;;;;;6052181;29;20483;-64
2022/09/28 00:29:07;;;;;;;2.37;1.60;;;11.20;99.90;;;;;;6053317;29;20838;-64
2022/09/28 00:32:12;;;;;;;1.70;1.60;;;11.10;99.90;;;;;;6055317;29;20490;-64
2022/09/28 00:35:16;;;;;;;2.50;1.40;;;11.00;99.90;;;;;;6053211;29;20478;-64
2022/09/28 00:38:20;;;;;;;3.53;1.50;;;10.90;99.90;;;;;;6054667;29;20483;-64
2022/09/28 00:41:23;;;;;;;2.43;1.20;;;10.90;99.90;;;;;;6054714;29;20478;-65
2022/09/28 00:44:39;;;;;;;2.40;1.60;;;10.80;99.90;;;;;;6053779;29;20486;-65
2022/09/28 00:47:50;;;;;;;1.70;1.60;;;10.70;99.90;;;;;;6055465;29;20491;-64
2022/09/28 00:50:55;;;;;;;1.93;1.73;;;10.80;99.90;;;;;;6055286;29;20970;-65
2022/09/28 00:54:01;;;;;;;1.50;1.40;;;10.70;99.90;;;;;;6052264;29;20806;-65
2022/09/28 00:57:05;;;;;;;1.80;1.23;;;10.60;99.90;;;;;;6039533;29;20503;-65
2022/09/28 01:00:10;;;;;;;1.67;1.57;;;10.60;99.90;;;;;;6039156;29;20503;-64
2022/09/28 01:03:13;;;;;;;4.17;1.90;;;10.60;99.90;;;;;;6039299;29;20502;-64
2022/09/28 01:06:21;;;;;;;4.03;2.00;;;10.60;99.90;;;;;;6039978;29;20491;-65
2022/09/28 01:09:26;;;;;;;2.00;1.80;;;10.50;99.90;;;;;;6039220;29;20832;-64
2022/09/28 01:12:29;;;;;;;2.00;1.57;;;10.50;99.90;;;;;;6041807;29;20498;-64
2022/09/28 01:15:40;;;;;;;1.43;1.33;;;10.40;99.90;;;;;;6047510;29;20850;-64
2022/09/28 01:18:52;;;;;;;4.83;1.50;;;10.30;99.90;;;;;;6039690;29;20467;-64
2022/09/28 01:22:14;;;;;;;1.90;1.80;;;10.30;99.90;;;;;;6039231;29;20486;-64
2022/09/28 01:25:30;;;;;;;2.63;1.90;;;10.20;99.90;;;;;;6038942;29;20555;-64
2022/09/28 01:28:34;;;;;;;2.83;1.70;;;10.20;99.90;;;;;;6038954;29;20483;-65
2022/09/28 01:31:44;;;;;;;1.53;1.43;;;10.20;99.90;;;;;;6038626;29;20547;-64
2022/09/28 01:34:56;;;;;;;4.80;2.30;;;10.20;99.90;;;;;;6038951;29;20993;-64
2022/09/28 01:38:02;;;;;;;5.47;2.27;;;10.20;99.90;;;;;;6038312;29;20963;-64
2022/09/28 01:41:07;;;;;;;1.80;1.70;;;10.10;99.90;;;;;;6038786;29;20531;-64
2022/09/28 01:44:16;;;;;;;1.53;1.43;;;10.10;99.90;;;;;;6038163;29;20507;-65
2022/09/28 01:47:23;;;;;;;2.10;1.53;;;10.10;99.90;;;;;;6037944;29;20823;-64
2022/09/28 01:50:30;;;;;;;2.97;1.80;;;10.00;99.90;;;;;;6038485;29;20479;-64
2022/09/28 01:53:37;;;;;;;1.30;1.20;;;10.00;99.90;;;;;;6038258;29;20475;-64
2022/09/28 01:56:45;;;;;;;2.67;2.00;;;10.00;99.90;;;;;;6038545;29;20499;-64
2022/09/28 01:59:55;;;;;;;1.50;1.40;;;10.00;99.90;;;;;;6038225;29;20484;-64
2022/09/28 02:03:05;;;;;;;1.80;1.67;;;10.00;99.90;;;;;;6038214;29;20480;-63
2022/09/28 02:06:14;;;;;;;1.40;1.30;;;10.00;99.90;;;;;;6037245;29;20558;-65
2022/09/28 02:09:22;;;;;;;6.00;1.90;;;9.90;99.90;;;;;;6038287;29;20491;-64
2022/09/28 02:12:33;;;;;;;2.00;1.80;;;9.90;99.90;;;;;;6037450;29;20989;-64
2022/09/28 02:15:45;;;;;;;1.83;1.60;;;9.90;99.90;;;;;;6037730;29;20443;-65
2022/09/28 02:18:49;;;;;;;2.20;2.00;;;9.90;99.90;;;;;;6037305;29;20479;-63
2022/09/28 02:21:59;;;;;;;3.00;2.20;;;9.90;99.90;;;;;;6037718;29;20558;-64
2022/09/28 02:25:09;;;;;;;2.20;1.47;;;9.90;99.90;;;;;;6037806;29;20479;-64
2022/09/28 02:28:13;;;;;;;3.83;2.17;;;9.80;99.90;;;;;;6037409;29;20494;-66
2022/09/28 02:31:18;;;;;;;2.07;1.90;;;9.70;99.90;;;;;;6037771;29;20479;-64
2022/09/28 02:34:21;;;;;;;2.10;1.70;;;9.60;99.90;;;;;;6037597;29;20471;-65
2022/09/28 02:37:25;;;;;;;2.30;1.93;;;9.60;99.90;;;;;;6037457;29;20491;-65
2022/09/28 02:40:31;;;;;;;2.17;1.97;;;9.60;99.90;;;;;;6037389;29;20495;-64
2022/09/28 02:43:49;;;;;;;3.37;1.87;;;9.50;99.90;;;;;;6037784;29;20746;-65
2022/09/28 02:46:59;;;;;;;6.67;2.37;;;9.50;99.90;;;;;;6037682;29;20479;-64
2022/09/28 02:50:12;;;;;;;2.20;2.00;;;9.50;99.90;;;;;;6036963;29;20532;-65
2022/09/28 02:53:33;;;;;;;3.63;1.90;;;9.50;99.90;;;;;;6036842;29;20789;-64
2022/09/28 02:56:53;;;;;;;2.80;2.23;;;9.50;99.90;;;;;;6037338;29;20499;-64
2022/09/28 03:00:07;;;;;;;4.37;2.60;;;9.40;99.90;;;;;;6037135;29;20548;-64
2022/09/28 03:03:18;;;;;;;5.60;3.13;;;9.40;99.90;;;;;;6036992;29;20991;-64
2022/09/28 03:06:26;;;;;;;7.17;3.50;;;9.40;99.90;;;;;;6037075;29;20488;-64
2022/09/28 03:09:36;;;;;;;2.73;2.53;;;9.30;99.90;;;;;;6036602;29;20498;-64
2022/09/28 03:12:41;;;;;;;6.93;2.00;;;9.40;99.90;;;;;;5991542;29;20529;-65
2022/09/28 03:15:44;;;;;;;3.27;1.83;;;9.30;99.90;;;;;;5991496;29;20905;-65
2022/09/28 03:18:52;;;;;;;2.60;1.83;;;9.30;99.90;;;;;;5998019;29;20475;-64
2022/09/28 03:21:55;;;;;;;3.50;2.37;;;9.30;99.90;;;;;;6013935;29;20480;-64
2022/09/28 03:24:58;;;;;;;3.10;2.10;;;9.30;99.90;;;;;;6014160;29;20544;-64
2022/09/28 03:28:02;;;;;;;7.90;2.13;;;9.30;99.90;;;;;;6014195;29;20480;-65
2022/09/28 03:31:05;;;;;;;2.80;1.60;;;9.30;99.90;;;;;;6013982;29;20480;-65
2022/09/28 03:34:09;;;;;;;2.20;2.00;;;9.20;99.90;;;;;;6014000;29;20803;-64
2022/09/28 03:37:12;;;;;;;1.73;1.60;;;9.10;99.90;;;;;;6014190;29;20490;-64
2022/09/28 03:40:16;;;;;;;1.80;1.40;;;9.00;99.90;;;;;;6014476;29;20684;-65
2022/09/28 03:43:19;;;;;;;2.90;1.63;;;9.00;99.90;;;;;;6014026;29;20480;-64
2022/09/28 03:46:22;;;;;;;1.87;1.77;;;9.00;99.90;;;;;;6014026;29;20480;-64
2022/09/28 03:49:26;;;;;;;3.23;1.60;;;9.00;99.90;;;;;;6013350;29;20872;-64
2022/09/28 03:52:30;;;;;;;5.10;4.70;;;9.00;99.90;;;;;;6013937;29;20486;-65
2022/09/28 03:55:33;;;;;;;7.77;7.07;;;9.00;99.90;;;;;;6014751;29;20863;-65
2022/09/28 03:58:36;;;;;;;8.93;7.83;;;8.90;99.90;;;;;;6015417;29;20480;-64
2022/09/28 04:01:39;;;;;;;5.43;4.40;;;8.90;99.90;;;;;;6014902;29;20484;-65
2022/09/28 04:04:44;;;;;;;4.10;3.67;;;8.90;99.90;;;;;;6014724;29;20499;-65
2022/09/28 04:07:47;;;;;;;3.83;2.87;;;8.90;99.90;;;;;;6014021;29;21024;-65
2022/09/28 04:10:50;;;;;;;2.80;2.60;;;8.80;99.90;;;;;;6014172;29;20966;-65
2022/09/28 04:13:53;;;;;;;3.43;3.13;;;8.80;99.90;;;;;;6014003;29;20484;-65
2022/09/28 04:16:56;;;;;;;2.90;2.67;;;8.80;99.90;;;;;;6013679;29;20798;-65
2022/09/28 04:20:02;;;;;;;3.50;2.10;;;8.90;99.90;;;;;;6014052;29;20959;-65
2022/09/28 04:23:05;;;;;;;5.10;1.77;;;8.80;99.90;;;;;;6013598;29;20513;-64
2022/09/28 04:26:15;;;;;;;2.07;1.83;;;8.80;99.90;;;;;;6013355;29;20883;-64
2022/09/28 04:29:17;;;;;;;3.30;2.33;;;8.80;99.90;;;;;;6014026;29;20907;-65
2022/09/28 04:32:21;;;;;;;3.47;2.30;;;8.70;99.90;;;;;;6017241;29;20580;-65
2022/09/28 04:35:26;;;;;;;2.37;2.00;;;8.80;99.90;;;;;;6017350;29;20499;-65
2022/09/28 04:38:29;;;;;;;6.00;2.93;;;8.80;99.90;;;;;;6018112;29;20544;-66
2022/09/28 04:41:52;;;;;;;3.23;1.70;;;8.70;99.90;;;;;;6017762;29;20575;-65
2022/09/28 04:44:56;;;;;;;2.20;1.80;;;8.60;99.90;;;;;;6016894;29;20495;-66
2022/09/28 04:47:59;;;;;;;1.80;1.70;;;8.70;99.90;;;;;;6016857;29;20484;-65
2022/09/28 04:51:04;;;;;;;1.93;1.80;;;8.70;99.90;;;;;;6017093;29;20490;-65
2022/09/28 04:54:07;;;;;;;1.67;1.57;;;8.60;99.90;;;;;;6017342;29;20492;-65
2022/09/28 04:57:10;;;;;;;3.37;1.57;;;8.60;99.90;;;;;;6017128;29;20496;-65
2022/09/28 05:00:15;;;;;;;2.30;2.10;;;8.60;99.90;;;;;;6016919;29;20480;-64
2022/09/28 05:03:18;;;;;;;3.30;2.30;;;8.50;99.90;;;;;;6016737;29;20488;-65
2022/09/28 05:06:26;;;;;;;2.50;2.30;;;8.50;99.90;;;;;;6016962;29;20503;-65
2022/09/28 05:09:29;;;;;;;5.53;4.93;;;8.40;99.90;;;;;;6017343;29;20980;-65
2022/09/28 05:12:39;;;;;;;4.40;2.80;;;8.40;99.90;;;;;;6039045;29;20455;-65
2022/09/28 05:15:42;;;;;;;3.63;3.13;;;8.50;99.90;;;;;;6040113;29;20515;-65
2022/09/28 05:18:46;;;;;;;3.00;2.80;;;8.50;99.90;;;;;;6040083;29;20563;-64
2022/09/28 05:21:50;;;;;;;6.07;3.53;;;8.50;99.90;;;;;;6040062;29;20452;-65
2022/09/28 05:24:54;;;;;;;4.03;3.73;;;8.60;99.90;;;;;;6039275;29;20822;-64
2022/09/28 05:28:00;;;;;;;3.63;3.43;;;8.80;99.90;;;;;;6039173;29;20599;-64
2022/09/28 05:31:04;;;;;;;6.80;3.13;;;9.00;99.90;;;;;;6039334;29;20555;-65
2022/09/28 05:34:08;;;;;;;4.47;2.70;;;9.20;99.90;;;;;;6038859;29;20475;-65
2022/09/28 05:37:12;;;;;;;3.67;3.23;;;9.40;99.90;;;;;;6038623;29;20482;-65
2022/09/28 05:40:15;;;;;;;6.17;5.77;;;9.60;99.90;;;;;;6039253;29;20479;-66
2022/09/28 05:43:19;;;;;;;5.00;4.60;;;9.80;99.90;;;;;;6039571;29;20479;-66
2022/09/28 05:46:22;;;;;;;4.80;4.10;;;9.90;99.90;;;;;;6039129;29;20524;-66
2022/09/28 05:49:27;;;;;;;5.10;3.83;;;10.00;99.90;;;;;;6039149;29;20494;-65
2022/09/28 05:52:32;;;;;;;2.93;2.73;;;10.00;99.90;;;;;;6040597;29;20471;-66
2022/09/28 05:55:37;;;;;;;4.57;3.00;;;9.90;99.90;;;;;;6040466;29;20966;-66
2022/09/28 05:58:40;;;;;;;2.73;2.53;;;9.90;99.90;;;;;;6040156;29;20487;-65
2022/09/28 06:01:43;;;;;;;3.27;2.70;;;9.80;99.90;;;;;;6038988;29;20491;-66
2022/09/28 06:04:48;;;;;;;3.80;2.90;;;9.70;99.90;;;;;;6038542;29;20483;-65
2022/09/28 06:07:55;;;;;;;3.60;3.30;;;9.60;99.90;;;;;;6038357;29;20487;-65
2022/09/28 06:11:00;;;;;;;3.33;3.03;;;9.60;99.90;;;;;;6038954;29;20579;-65
2022/09/28 06:14:04;;;;;;;3.30;2.77;;;9.60;99.90;;;;;;6037919;29;20491;-65
2022/09/28 06:17:07;;;;;;;4.80;2.30;;;9.60;99.90;;;;;;6038468;29;20479;-65
2022/09/28 06:20:11;;;;;;;5.90;2.60;;;9.70;99.90;;;;;;6039443;29;20909;-65
2022/09/28 06:23:15;;;;;;;3.43;2.63;;;9.80;99.90;;;;;;6038426;29;20874;-64
2022/09/28 06:26:18;;;;;;;3.13;2.30;;;9.90;99.90;;;;;;6055385;29;20503;-64
2022/09/28 06:29:21;;;;;;;4.80;3.07;;;10.00;99.90;;;;;;6057900;29;20575;-65
2022/09/28 06:32:28;;;;;;;5.60;3.00;;;10.10;99.90;;;;;;6042397;29;20479;-65
2022/09/28 06:35:32;;;;;;;3.60;3.30;;;10.20;99.90;;;;;;6037218;29;20475;-64
2022/09/28 06:38:36;;;;;;;3.53;3.23;;;10.40;99.90;;;;;;6038371;29;20991;-65
2022/09/28 06:41:40;;;;;;;3.77;2.40;;;10.60;99.90;;;;;;6039357;29;20487;-66
2022/09/28 06:44:43;;;;;;;3.07;2.13;;;10.70;99.90;;;;;;6040384;29;20507;-65
2022/09/28 06:47:47;;;;;;;3.40;3.10;;;10.90;99.90;;;;;;6037286;29;20559;-65
2022/09/28 06:50:50;;;;;;;2.93;2.73;;;11.20;99.90;;;;;;6036274;29;20801;-65
2022/09/28 06:53:55;;;;;;;6.00;2.87;;;11.40;99.90;;;;;;6036108;29;20991;-65
2022/09/28 06:56:58;;;;;;;2.83;2.50;;;11.80;99.90;;;;;;6037628;29;20483;-65
2022/09/28 07:00:02;;;;;;;4.53;2.40;;;12.30;99.90;;;;;;6036929;29;20862;-66
2022/09/28 07:03:06;;;;;;;4.73;1.90;;;13.00;99.90;;;;;;6037237;29;20487;-65
2022/09/28 07:06:11;;;;;;;2.10;1.63;;;13.80;99.90;;;;;;6036833;29;20495;-65
2022/09/28 07:09:15;;;;;;;2.80;2.13;;;14.20;99.90;;;;;;6037100;29;20887;-66
2022/09/28 07:12:35;;;;;;;2.70;1.70;;;14.50;99.90;;;;;;6036908;29;20593;-66
2022/09/28 07:15:39;;;;;;;1.93;1.73;;;15.40;99.90;;;;;;6036085;29;20467;-66
2022/09/28 07:18:42;;;;;;;6.90;2.07;;;16.80;99.80;;;;;;6036615;29;20475;-66
2022/09/28 07:21:45;;;;;;;2.00;1.10;;;18.70;96.50;;;;;;6038046;29;20795;-65
2022/09/28 07:25:06;;;;;;;1.60;1.50;;;20.80;91.30;;;;;;6035964;29;20463;-65
2022/09/28 07:28:09;;;;;;;2.23;1.50;;;21.90;82.90;;;;;;6034816;29;20698;-62
2022/09/28 07:31:12;;;;;;;2.20;1.50;;;21.50;75.60;;;;;;6035818;29;20230;-63
2022/09/28 07:34:16;;;;;;;1.87;1.77;;;21.90;75.80;;;;;;6036229;29;20681;-63
2022/09/28 07:37:19;;;;;;;2.27;1.70;;;22.80;69.50;;;;;;6035948;29;20246;-63
2022/09/28 07:43:50;;;;;;;1.70;1.60;;;25.80;62.50;;;;;;6036751;29;20234;-63
2022/09/28 07:46:53;;;;;;;2.63;1.93;;;26.90;54.70;;;;;;6035872;29;20238;-64
2022/09/28 07:49:56;;;;;;;3.67;2.23;;;28.50;50.80;;;;;;6035716;29;20261;-63
2022/09/28 07:53:00;;;;;;;1.80;1.67;;;29.60;46.20;;;;;;6036188;29;20238;-63
2022/09/28 07:56:06;;;;;;;5.10;1.93;;;30.20;44.00;;;;;;6035541;29;20233;-63
2022/09/28 07:59:10;;;;;;;2.67;2.33;;;30.10;42.30;;;;;;6036137;29;20252;-64
2022/09/28 08:02:13;;;;;;;6.73;2.03;;;29.50;42.70;;;;;;6035373;29;20237;-64
2022/09/28 08:05:16;;;;;;;2.83;2.00;;;28.70;43.20;;;;;;6037887;29;20242;-63
2022/09/28 08:08:20;;;;;;;2.80;2.50;;;27.60;44.80;;;;;;6040161;29;20256;-64
2022/09/28 08:11:24;;;;;;;4.27;3.87;;;26.60;45.80;;;;;;6040600;29;20245;-63
2022/09/28 08:14:27;;;;;;;8.37;4.10;;;25.70;48.00;;;;;;6040313;29;20631;-63
2022/09/28 08:17:30;;;;;;;4.13;3.80;;;24.60;50.50;;;;;;6040150;29;20705;-64
2022/09/28 08:23:55;;;;;;;6.17;5.23;;;24.60;51.70;;;;;;6040004;29;20242;-63
2022/09/28 08:26:59;;;;;;;5.73;4.13;;;24.40;52.00;;;;;;6040124;29;20663;-62
2022/09/28 08:30:02;;;;;;;4.20;2.43;;;24.50;51.40;;;;;;6025903;29;20246;-65
2022/09/28 08:33:06;;;;;;;5.07;3.50;;;24.10;52.00;;;;;;6017456;29;20239;-64
2022/09/28 08:36:10;;;;;;;3.60;2.90;;;24.70;52.20;;;;;;6016756;29;20569;-66
2022/09/28 08:39:13;;;;;;;4.83;2.93;;;25.70;49.40;;;;;;6039700;29;20294;-66
2022/09/28 08:42:31;;;;;;;3.90;3.60;;;26.20;48.80;;;;;;6039589;29;20238;-68
2022/09/28 08:45:34;;;;;;;4.50;4.20;;;26.10;48.20;;;;;;6039848;29;20541;-68
2022/09/28 08:48:52;;;;;;;6.83;3.57;;;25.90;48.30;;;;;;6039183;29;20550;-65
2022/09/28 08:52:22;;;;;;;4.83;3.40;;;25.40;48.80;;;;;;6039605;29;20312;-66
2022/09/28 08:55:30;;;;;;;4.40;4.00;;;25.40;50.10;;;;;;6039236;29;20238;-64
2022/09/28 08:58:41;;;;;;;6.20;4.07;;;25.20;50.10;;;;;;6039678;29;20249;-63
2022/09/28 09:01:48;;;;;;;6.10;3.90;;;25.10;50.00;;;;;;6039912;29;20258;-64
2022/09/28 09:04:52;;;;;;;5.03;4.60;;;24.80;50.40;;;;;;6039136;29;20222;-65
2022/09/28 09:08:08;;;;;;;7.23;5.27;;;24.40;51.70;;;;;;6038655;29;20782;-65
2022/09/28 09:11:26;;;;;;;5.97;5.00;;;23.80;52.70;;;;;;6038551;29;20226;-64
2022/09/28 09:14:54;;;;;;;5.40;4.90;;;22.80;55.20;;;;;;6039186;29;20238;-64
2022/09/28 09:18:08;;;;;;;7.00;5.83;;;21.70;57.40;;;;;;6027673;29;20701;-64
2022/09/28 09:21:15;;;;;;;6.07;5.43;;;21.60;57.90;;;;;;6036928;29;20234;-64
2022/09/28 09:24:31;;;;;;;8.03;5.60;;;21.40;57.40;;;;;;6037683;29;20710;-64
2022/09/28 09:27:48;;;;;;;6.93;5.10;;;20.90;60.20;;;;;;6037874;29;20231;-64
2022/09/28 09:31:04;;;;;;;5.60;5.10;;;20.20;61.30;;;;;;6038218;29;20238;-64
2022/09/28 09:34:52;;;;;;;5.10;4.60;;;19.90;64.30;;;;;;6037844;29;20230;-64
2022/09/28 09:38:08;;;;;;;4.80;4.40;;;20.10;64.80;;;;;;6029309;29;20243;-64
2022/09/28 09:41:18;;;;;;;5.30;4.03;;;20.60;64.10;;;;;;6038482;29;20234;-64
2022/09/28 09:44:48;;;;;;;3.80;3.50;;;20.50;63.70;;;;;;6038459;29;20243;-64
2022/09/28 09:47:58;;;;;;;3.13;2.93;;;20.50;63.80;;;;;;6037783;29;20238;-64
2022/09/28 09:51:04;;;;;;;3.33;2.60;;;20.90;62.50;;;;;;6037680;29;20250;-64
2022/09/28 09:54:14;;;;;;;5.63;3.17;;;21.20;62.60;;;;;;6035169;29;20299;-64
2022/09/28 09:57:21;;;;;;;4.33;3.50;;;20.60;63.30;;;;;;6037471;29;20279;-64
2022/09/28 10:00:24;;;;;;;3.77;3.47;;;20.40;65.20;;;;;;6037577;29;20246;-64
2022/09/28 10:03:32;;;;;;;3.80;3.40;;;20.40;65.30;;;;;;6034860;29;20295;-65
2022/09/28 10:06:38;;;;;;;3.40;3.10;;;20.20;66.50;;;;;;6037483;29;20307;-65
2022/09/28 10:09:44;;;;;;;3.80;3.50;;;19.90;68.10;;;;;;6014203;29;20235;-65
2022/09/28 10:12:49;;;;;;;4.90;2.73;;;19.80;69.90;;;;;;6012504;29;20655;-66
2022/09/28 10:15:54;;;;;;;2.77;2.60;;;20.10;70.40;;;;;;6014569;29;20204;-65
2022/09/28 10:18:59;;;;;;;3.80;3.50;;;19.80;71.20;;;;;;6019860;29;20246;-65
2022/09/28 10:22:05;;;;;;;3.77;3.37;;;19.10;73.50;;;;;;6035615;29;20245;-67
2022/09/28 10:25:09;;;;;;;2.90;2.70;;;18.60;77.10;;;;;;6037486;29;20249;-67
2022/09/28 10:28:18;;;;;;;3.30;3.00;;;18.40;79.30;;;;;;6036587;29;20242;-66
2022/09/28 10:31:36;;;;;;;3.80;3.27;;;18.00;82.00;;;;;;6036753;29;20483;-68
2022/09/28 10:34:40;;;;;;;2.87;2.67;;;17.40;84.80;;;;;;6034751;29;20483;-67
2022/09/28 10:37:51;;;;;;;5.00;2.73;;;17.00;88.80;;;;;;6037230;29;20490;-68
2022/09/28 10:40:58;;;;;;;3.27;2.97;;;17.20;90.20;;;;;;6037185;29;20488;-68
2022/09/28 10:44:07;;;;;;;3.60;3.17;;;17.60;90.20;;;;;;6037112;29;20974;-68
2022/09/28 10:47:16;;;;;;;2.70;2.50;;;17.90;89.40;;;;;;6036727;29;20487;-64
2022/09/28 10:50:24;;;;;;;4.10;2.83;;;18.10;89.00;;;;;;6037122;29;20476;-65
2022/09/28 10:53:27;;;;;;;4.20;3.80;;;18.00;89.30;;;;;;6037005;29;20990;-65
2022/09/28 10:56:36;;;;;;;3.53;2.90;;;17.80;89.60;;;;;;6036828;29;20472;-65
2022/09/28 10:59:41;;;;;;;2.93;2.50;;;17.70;90.20;;;;;;6014393;29;20503;-65
2022/09/28 11:02:44;;;;;;;3.13;2.90;;;17.60;90.20;;;;;;6014124;29;20480;-65
2022/09/28 11:05:59;;;;;;;2.97;2.77;;;17.80;91.10;;;;;;6020919;29;20975;-66
2022/09/28 11:09:04;;;;;;;2.70;2.50;;;17.80;90.60;;;;;;6036289;29;20484;-66
2022/09/28 11:12:14;;;;;;;3.70;2.97;;;18.70;90.30;;;;;;6036361;29;20485;-66
2022/09/28 11:15:19;;;;;;;3.50;3.20;;;19.40;87.60;;;;;;6036359;29;20713;-66
2022/09/28 11:18:28;;;;;;;5.23;3.00;;;19.90;85.10;;;;;;6036287;29;20238;-66
2022/09/28 11:21:42;;;;;;;3.47;3.17;;;20.40;83.00;;;;;;6036293;29;20694;-66
2022/09/28 11:24:45;;;;;;;3.03;2.37;;;21.00;80.10;;;;;;6036349;29;20219;-67
2022/09/28 11:28:03;;;;;;;3.30;3.00;;;21.50;79.10;;;;;;6036458;29;20238;-67
2022/09/28 11:31:07;;;;;;;3.50;3.20;;;21.20;77.20;;;;;;6036237;29;20693;-67
2022/09/28 11:34:20;;;;;;;3.50;3.20;;;20.80;79.60;;;;;;6036075;29;20235;-66
2022/09/28 11:38:00;;;;;;;3.17;2.97;;;21.10;79.80;;;;;;6036080;29;20245;-66
2022/09/28 11:41:17;;;;;;;3.30;2.97;;;21.90;77.00;;;;;;6035945;29;20701;-67
2022/09/28 11:44:38;;;;;;;3.23;2.93;;;22.50;75.90;;;;;;6036155;29;20246;-67
2022/09/28 11:47:55;;;;;;;3.00;2.80;;;23.80;73.30;;;;;;6035502;29;20566;-67
2022/09/28 11:51:03;;;;;;;3.30;2.97;;;24.50;68.20;;;;;;6035618;29;20242;-67
2022/09/28 11:54:16;;;;;;;4.07;2.67;;;24.70;67.80;;;;;;6035952;29;20731;-65
2022/09/28 11:57:24;;;;;;;3.40;3.20;;;25.90;64.00;;;;;;6036057;29;20255;-63
2022/09/28 12:00:28;;;;;;;3.97;2.37;;;27.00;59.60;;;;;;6036123;29;20234;-66
2022/09/28 12:03:39;;;;;;;3.00;2.40;;;29.60;55.40;;;;;;6036624;29;20242;-65
2022/09/28 12:06:49;;;;;;;2.80;2.60;;;32.80;47.60;;;;;;6035543;29;20298;-65
2022/09/28 12:09:58;;;;;;;2.45;2.25;;;35.40;40.30;;;;;;6035650;29;20270;-65
2022/09/28 12:13:04;;;;;;;2.80;2.55;;;36.70;36.80;;;;;;6035665;29;20238;-65
2022/09/28 12:16:14;;;;;;;3.72;2.45;;;38.20;33.40;;;;;;6035759;29;20562;-65
2022/09/28 12:19:42;;;;;;;3.00;2.80;;;36.50;34.00;;;;;;6035520;29;20322;-65
2022/09/28 12:22:50;;;;;;;3.10;2.90;;;34.90;35.10;;;;;;6035610;29;20246;-66
2022/09/28 12:25:58;;;;;;;3.17;2.88;;;32.30;37.60;;;;;;6035721;29;20242;-66
2022/09/28 12:29:10;;;;;;;2.83;2.60;;;29.50;42.70;;;;;;6036089;29;20239;-66
2022/09/28 12:32:30;;;;;;;3.57;3.30;;;28.00;46.20;;;;;;6012469;29;20768;-66
2022/09/28 12:35:44;;;;;;;3.60;3.00;;;27.30;48.40;;;;;;6012866;29;20246;-66
2022/09/28 12:39:00;;;;;;;4.60;3.13;;;29.80;45.40;;;;;;6032689;29;20246;-67
2022/09/28 12:42:43;;;;;;;3.63;3.10;;;29.20;45.50;;;;;;6035629;29;20330;-66
2022/09/28 12:46:19;;;;;;;3.47;3.17;;;28.90;46.30;;;;;;6035564;29;20561;-65
2022/09/28 12:49:34;;;;;;;3.95;3.45;;;31.10;44.70;;;;;;6035036;29;20246;-68
2022/09/28 12:53:18;;;;;;;3.80;2.70;;;32.80;39.60;;;;;;6039521;29;20541;-67
2022/09/28 12:56:29;;;;;;;3.97;3.53;;;31.00;42.00;;;;;;6031370;29;20556;-67
2022/09/28 12:59:38;;;;;;;2.80;2.60;;;29.10;46.30;;;;;;6039517;29;20238;-65
2022/09/28 13:02:57;;;;;;;2.93;2.73;;;27.20;49.10;;;;;;6040068;29;20249;-63
2022/09/28 13:06:33;;;;;;;3.20;3.00;;;26.50;51.80;;;;;;6039534;29;20234;-63
2022/09/28 13:09:47;;;;;;;3.50;3.20;;;25.90;52.70;;;;;;6036492;29;20568;-64
2022/09/28 13:13:16;;;;;;;3.30;3.00;;;25.40;54.20;;;;;;6039813;29;20222;-64
2022/09/28 13:16:28;;;;;;;2.83;2.63;;;24.90;55.10;;;;;;6040465;29;20242;-64
2022/09/28 13:19:40;;;;;;;3.57;3.27;;;24.60;56.10;;;;;;6042384;29;20249;-66
2022/09/28 13:22:53;;;;;;;6.37;3.90;;;23.00;59.50;;;;;;6040530;29;20294;-66
2022/09/28 13:26:03;;;;;;;3.83;3.37;;;22.30;62.20;;;;;;6040647;29;20295;-66
2022/09/28 13:29:13;;;;;;;4.30;3.27;;;21.50;65.70;;;;;;6039561;29;20231;-66
2022/09/28 13:32:19;;;;;;;3.60;3.30;;;21.30;68.60;;;;;;6039096;29;20238;-66
2022/09/28 13:35:22;;;;;;;3.30;3.00;;;21.30;70.30;;;;;;6040424;29;20282;-66
2022/09/28 13:38:50;;;;;;;3.40;3.20;;;21.20;71.00;;;;;;6039305;29;20250;-65
2022/09/28 13:41:54;;;;;;;3.60;3.30;;;20.80;73.20;;;;;;6039198;29;20238;-67
2022/09/28 13:45:33;;;;;;;3.47;3.20;;;20.40;76.10;;;;;;6039521;29;20237;-67
2022/09/28 13:48:50;;;;;;;3.50;3.27;;;19.90;80.30;;;;;;6038130;29;20570;-66
2022/09/28 13:52:03;;;;;;;3.70;3.40;;;19.50;84.00;;;;;;6038905;29;20247;-66
2022/09/28 13:55:32;;;;;;;3.70;3.40;;;19.40;86.30;;;;;;6038875;29;20317;-66
2022/09/28 13:58:38;;;;;;;3.20;2.90;;;19.10;89.40;;;;;;6035888;29;20253;-66
2022/09/28 14:01:50;;;;;;;2.87;2.67;;;18.90;90.90;;;;;;6038764;29;20572;-67
2022/09/28 14:04:58;;;;;;;3.73;3.37;;;18.70;92.40;;;;;;6038477;29;20238;-67
2022/09/28 14:08:27;;;;;;;2.73;2.53;;;18.50;93.60;;;;;;6037767;29;20655;-67
2022/09/28 14:11:56;;;;;;;2.40;2.20;;;18.50;94.50;;;;;;6037548;29;20617;-68
2022/09/28 14:15:00;;;;;;;2.90;2.20;;;18.50;94.90;;;;;;6037693;29;20245;-68
2022/09/28 14:18:10;;;;;;;2.33;2.13;;;18.40;95.50;;;;;;6037775;29;20483;-67
2022/09/28 14:21:38;;;;;;;2.33;2.03;;;18.40;95.70;;;;;;6037877;29;20482;-66
2022/09/28 14:24:59;;;;;;;1.93;1.77;;;18.20;96.00;;;;;;6038496;29;20463;-66
2022/09/28 14:28:22;;;;;;;2.20;2.00;;;18.10;96.50;;;;;;6038300;29;20960;-68
2022/09/28 14:31:27;;;;;;;4.73;1.63;;;17.80;97.90;;;;;;6037401;29;20313;-69
2022/09/28 14:34:35;;;;;;;2.00;1.80;;;17.80;98.40;;;;;;6037690;29;20234;-68
2022/09/28 14:41:11;;;;;;;1.90;1.80;;;17.90;98.80;;;;;;6037423;29;20490;-65
2022/09/28 14:44:16;;;;;;;2.00;1.83;;;17.50;99.60;;;;;;6036442;29;20483;-66
2022/09/28 14:47:33;;;;;;;3.40;1.97;;;17.50;99.90;;;;;;6035798;29;20975;-65
2022/09/28 14:50:36;;;;;;;2.37;1.80;;;17.50;99.90;;;;;;6036175;29;20495;-66
2022/09/28 14:53:41;;;;;;;2.30;2.10;;;17.60;99.90;;;;;;6036622;29;20487;-66
2022/09/28 14:56:48;;;;;;;2.27;2.03;;;17.60;99.90;;;;;;6036348;29;20559;-66
2022/09/28 14:59:52;;;;;;;2.97;1.97;;;17.50;99.90;;;;;;6036436;29;20926;-66
2022/09/28 15:03:00;;;;;;;4.10;2.20;;;17.40;99.90;;;;;;6036300;29;20498;-66
2022/09/28 15:06:03;;;;;;;5.10;2.10;;;17.40;99.90;;;;;;6036902;29;20487;-66
2022/09/28 15:09:29;;;;;;;3.63;1.80;;;17.30;99.90;;;;;;6036463;29;20496;-66
2022/09/28 15:12:32;;;;;;;2.10;2.00;;;17.30;99.90;;;;;;6035607;29;20491;-66
2022/09/28 15:15:38;;;;;;;3.90;2.10;;;17.20;99.90;;;;;;6033855;29;20555;-65
2022/09/28 15:19:14;;;;;;;2.37;2.17;;;17.20;99.90;;;;;;6036339;29;20470;-66
2022/09/28 15:22:18;;;;;;;2.60;2.40;;;17.10;99.90;;;;;;6036029;29;20834;-65
2022/09/28 15:25:25;;;;;;;4.93;3.90;;;17.00;99.90;;;;;;6035551;29;20803;-65
2022/09/28 15:28:28;;;;;;;8.63;5.63;;;17.00;99.90;;;;;;6036277;29;20483;-67
2022/09/28 15:31:35;;;;;;;4.27;2.87;;;16.90;99.90;;;;;;6035626;29;20574;-68
2022/09/28 15:34:56;;;;;;;4.10;3.70;;;16.90;99.90;;;;;;6036379;29;20848;-68
2022/09/28 15:37:59;;;;;;;3.00;2.80;;;16.90;99.90;;;;;;6036003;29;20550;-68
2022/09/28 15:41:06;;;;;;;3.03;2.73;;;16.90;99.90;;;;;;6036060;29;20490;-67
2022/09/28 15:44:28;;;;;;;2.60;2.40;;;16.90;99.90;;;;;;6035877;29;20494;-69
2022/09/28 15:47:32;;;;;;;3.00;2.53;;;16.90;99.90;;;;;;6035374;29;20543;-69
2022/09/28 15:50:36;;;;;;;3.10;2.83;;;16.80;99.90;;;;;;6036157;29;20544;-68
2022/09/28 15:53:51;;;;;;;3.00;2.50;;;16.80;99.90;;;;;;6035395;29;20501;-68
2022/09/28 15:56:58;;;;;;;3.20;2.90;;;16.80;99.90;;;;;;6035605;29;20818;-68
2022/09/28 16:00:01;;;;;;;5.20;3.13;;;16.70;99.90;;;;;;6035570;29;20486;-68
2022/09/28 16:03:22;;;;;;;3.63;2.80;;;16.60;99.90;;;;;;6035479;29;20479;-68
2022/09/28 16:06:25;;;;;;;2.87;2.57;;;16.50;99.90;;;;;;6035694;29;20490;-68
2022/09/28 16:09:33;;;;;;;3.37;3.00;;;16.50;99.90;;;;;;6024133;29;20495;-69
2022/09/28 16:12:47;;;;;;;6.83;2.87;;;16.50;99.90;;;;;;6035742;29;20495;-68
2022/09/28 16:15:58;;;;;;;3.60;3.30;;;16.40;99.90;;;;;;6035884;29;20443;-68
2022/09/28 16:19:03;;;;;;;3.00;2.70;;;16.40;99.90;;;;;;6035816;29;20494;-69
2022/09/28 16:22:08;;;;;;;6.63;2.77;;;16.30;99.90;;;;;;6035671;29;20478;-68
2022/09/28 16:25:18;;;;;;;3.80;3.00;;;16.20;99.90;;;;;;6036115;29;20478;-68
2022/09/28 16:28:47;;;;;;;4.13;2.70;;;16.10;99.90;;;;;;6040282;29;20493;-68
2022/09/28 16:31:52;;;;;;;3.80;3.00;;;16.00;99.90;;;;;;6040055;29;20483;-68
2022/09/28 16:35:17;;;;;;;4.50;3.93;;;16.00;99.90;;;;;;6030087;29;20472;-68
2022/09/28 16:38:20;;;;;;;8.23;4.70;;;16.00;99.90;;;;;;6016889;29;21259;-68